Terminal Aerodrome Forecast
Issued by NWS Wilmington, OH

Home | Current Version | Previous Version | Text Only | Print | Product List | Glossary On
Versions: 1 2 3 4 5 6 7 8 9 10 11 12 13 14 15 16 17 18 19 20 21 22 23 24 25
000
FTUS41 KILN 240534
TAFCMH
TAF
KCMH 240534Z 2406/2506 26006KT P6SM SKC
     FM241200 28009KT P6SM SKC
     FM241600 28012G20KT P6SM SCT040
      TEMPO 2419/2423 BKN040
     FM250200 27005KT P6SM SCT040=

USA.gov is the U.S. government's official web portal to all federal, state and local government web resources and services.